createdAt,value
2023-03-22T00:01:28.764Z,12.90
2023-03-22T00:03:56.879Z,12.90
2023-03-22T00:06:25.279Z,12.90
2023-03-22T00:08:54.205Z,12.90
2023-03-22T00:11:24.219Z,12.80
2023-03-22T00:13:52.484Z,12.90
2023-03-22T00:16:21.764Z,12.90
2023-03-22T00:18:51.496Z,12.90
2023-03-22T00:21:19.877Z,12.90
2023-03-22T00:23:47.868Z,12.80
2023-03-22T00:26:16.222Z,12.80
2023-03-22T00:28:44.981Z,12.80
2023-03-22T00:31:13.189Z,12.80
2023-03-22T00:33:42.035Z,12.80
2023-03-22T00:36:13.767Z,12.80
2023-03-22T00:38:44.018Z,12.90
2023-03-22T00:41:14.088Z,12.90
2023-03-22T00:43:42.526Z,12.90
2023-03-22T00:46:11.304Z,12.80
2023-03-22T00:48:39.940Z,12.80
2023-03-22T00:51:09.282Z,12.80
2023-03-22T00:53:43.103Z,12.80
2023-03-22T00:56:15.718Z,12.80
2023-03-22T00:58:55.987Z,12.80
2023-03-22T01:01:24.336Z,12.80
2023-03-22T01:03:52.530Z,12.80
2023-03-22T01:06:21.530Z,12.80
2023-03-22T01:08:51.632Z,12.80
2023-03-22T01:11:19.989Z,12.80
2023-03-22T01:13:48.861Z,12.80
2023-03-22T01:16:17.952Z,12.70
2023-03-22T01:18:46.122Z,12.70
2023-03-22T01:21:14.542Z,12.70
2023-03-22T01:23:42.981Z,12.70
2023-03-22T01:26:12.351Z,12.80
2023-03-22T01:28:41.160Z,12.70
2023-03-22T01:31:09.278Z,12.70
2023-03-22T01:33:37.788Z,12.70
2023-03-22T01:36:06.777Z,12.60
2023-03-22T01:38:36.208Z,12.70
2023-03-22T01:41:04.403Z,12.70
2023-03-22T01:43:37.260Z,12.70
2023-03-22T01:46:05.943Z,12.80
2023-03-22T01:48:37.350Z,12.80
2023-03-22T01:51:10.306Z,12.80
2023-03-22T01:54:01.083Z,12.80
2023-03-22T01:56:33.729Z,12.80
2023-03-22T01:59:04.840Z,12.80
2023-03-22T02:01:49.578Z,12.80
2023-03-22T02:04:21.027Z,12.80
2023-03-22T02:06:51.635Z,12.80
2023-03-22T02:09:22.055Z,12.70
2023-03-22T02:12:06.510Z,12.70
2023-03-22T02:14:49.103Z,12.70
2023-03-22T02:17:59.784Z,12.60
2023-03-22T02:21:02.547Z,12.60
2023-03-22T02:24:25.186Z,12.50
2023-03-22T02:27:23.643Z,12.50
2023-03-22T02:30:11.561Z,12.40
2023-03-22T02:33:08.299Z,12.40
2023-03-22T02:35:51.421Z,12.30
2023-03-22T02:38:59.426Z,12.30
2023-03-22T02:41:37.863Z,12.20
2023-03-22T02:44:10.956Z,12.10
2023-03-22T02:46:45.285Z,12.20
2023-03-22T02:49:21.154Z,12.20
2023-03-22T02:51:54.876Z,12.20
2023-03-22T02:54:29.741Z,12.20
2023-03-22T02:57:03.966Z,12.20
2023-03-22T02:59:38.414Z,12.20
2023-03-22T03:02:09.353Z,12.20
2023-03-22T03:04:43.070Z,12.20
2023-03-22T03:07:14.753Z,12.10
2023-03-22T03:09:45.704Z,12.10
2023-03-22T03:12:18.747Z,12.00
2023-03-22T03:14:47.293Z,12.00
2023-03-22T03:17:30.736Z,11.90
2023-03-22T03:20:17.743Z,11.90
2023-03-22T03:22:55.472Z,11.90
2023-03-22T03:25:30.760Z,11.80
2023-03-22T03:28:06.469Z,11.80
2023-03-22T03:30:40.737Z,11.90
2023-03-22T03:33:13.811Z,11.90
2023-03-22T03:35:48.447Z,11.90
2023-03-22T03:38:20.382Z,11.90
2023-03-22T03:40:53.708Z,11.90
2023-03-22T03:43:25.406Z,11.90
2023-03-22T03:45:54.783Z,11.90
2023-03-22T03:48:25.042Z,11.80
2023-03-22T03:50:54.518Z,11.80
2023-03-22T03:53:22.544Z,11.80
2023-03-22T03:55:52.006Z,11.80
2023-03-22T03:58:20.423Z,11.80
2023-03-22T04:00:52.393Z,11.80
2023-03-22T04:03:42.695Z,11.80
2023-03-22T04:06:13.756Z,11.70
2023-03-22T04:08:53.802Z,11.60
2023-03-22T04:11:27.192Z,11.50
2023-03-22T04:13:59.785Z,11.50
2023-03-22T04:16:27.966Z,11.50
2023-03-22T04:18:56.067Z,11.50
2023-03-22T04:21:24.114Z,11.50
2023-03-22T04:23:58.784Z,11.40
2023-03-22T04:26:30.815Z,11.40
2023-03-22T04:29:15.986Z,11.40
2023-03-22T04:31:48.504Z,11.40
2023-03-22T04:34:36.914Z,11.50
2023-03-22T04:37:10.478Z,11.50
2023-03-22T04:39:46.514Z,11.30
2023-03-22T04:42:32.788Z,11.30
2023-03-22T04:45:17.284Z,11.30
2023-03-22T04:47:51.039Z,11.20
2023-03-22T04:50:19.242Z,11.20
2023-03-22T04:52:52.498Z,11.30
2023-03-22T04:55:20.885Z,11.30
2023-03-22T04:57:54.613Z,11.30
2023-03-22T05:00:24.526Z,11.30
2023-03-22T05:02:53.819Z,11.30
2023-03-22T05:05:33.545Z,11.30
2023-03-22T05:08:03.897Z,11.30
2023-03-22T05:10:31.900Z,11.30
2023-03-22T05:13:01.496Z,11.30
2023-03-22T05:15:34.555Z,11.20
2023-03-22T05:18:04.999Z,11.20
2023-03-22T05:20:33.000Z,11.20
2023-03-22T05:23:19.193Z,11.20
2023-03-22T05:25:51.075Z,11.30
2023-03-22T05:28:22.260Z,11.20
2023-03-22T05:31:00.690Z,11.30
2023-03-22T05:33:48.445Z,11.30
2023-03-22T05:36:19.967Z,11.40
2023-03-22T05:39:09.841Z,11.50
2023-03-22T05:41:38.061Z,11.50
2023-03-22T05:44:08.189Z,11.50
2023-03-22T05:46:39.370Z,11.60
2023-03-22T05:49:27.157Z,11.60
2023-03-22T05:51:56.052Z,11.50
2023-03-22T05:54:26.994Z,11.60
2023-03-22T05:56:55.998Z,11.60
2023-03-22T05:59:26.146Z,11.60
2023-03-22T06:01:54.342Z,11.60
2023-03-22T06:04:24.757Z,11.60
2023-03-22T06:07:06.373Z,11.60
2023-03-22T06:09:55.769Z,11.60
2023-03-22T06:12:27.233Z,11.60
2023-03-22T06:15:18.024Z,11.70
2023-03-22T06:18:12.239Z,11.70
2023-03-22T06:20:44.067Z,11.70
2023-03-22T06:23:17.713Z,11.70
2023-03-22T06:25:47.707Z,11.70
2023-03-22T06:28:16.809Z,11.70
2023-03-22T06:30:52.722Z,11.70
2023-03-22T06:33:20.778Z,11.80
2023-03-22T06:35:54.684Z,11.80
2023-03-22T06:38:30.997Z,11.80
2023-03-22T06:40:59.284Z,11.80
2023-03-22T06:43:27.569Z,11.80
2023-03-22T06:46:04.504Z,11.90
2023-03-22T06:48:38.650Z,12.00
2023-03-22T06:51:10.750Z,12.00
2023-03-22T06:53:39.263Z,12.00
2023-03-22T06:56:08.189Z,12.00
2023-03-22T06:58:47.736Z,12.10
2023-03-22T07:01:17.202Z,12.10
2023-03-22T07:03:45.470Z,12.10
2023-03-22T07:06:16.271Z,12.00
2023-03-22T07:08:49.149Z,12.10
2023-03-22T07:11:22.490Z,12.10
2023-03-22T07:13:58.051Z,12.20
2023-03-22T07:16:29.740Z,12.20
2023-03-22T07:19:00.815Z,12.30
2023-03-22T07:21:28.985Z,12.30
2023-03-22T07:24:01.045Z,12.30
2023-03-22T07:26:31.554Z,12.30
2023-03-22T07:29:00.865Z,12.30
2023-03-22T07:31:35.941Z,12.30
2023-03-22T07:34:07.017Z,12.30
2023-03-22T07:37:04.460Z,12.20
2023-03-22T07:39:33.209Z,12.20
2023-03-22T07:42:01.391Z,12.30
2023-03-22T07:44:49.743Z,12.30
2023-03-22T07:47:37.797Z,12.40
2023-03-22T07:50:20.411Z,12.40
2023-03-22T07:52:53.806Z,12.40
2023-03-22T07:55:21.936Z,12.50
2023-03-22T07:57:50.052Z,12.60
2023-03-22T08:00:19.210Z,12.60
2023-03-22T08:02:58.353Z,12.70
2023-03-22T08:06:04.338Z,12.70
2023-03-22T08:08:32.588Z,12.70
2023-03-22T08:11:00.821Z,12.70
2023-03-22T08:13:29.156Z,12.70
2023-03-22T08:15:57.694Z,12.70
2023-03-22T08:18:27.342Z,12.70
2023-03-22T08:20:56.232Z,12.80
2023-03-22T08:23:38.454Z,12.80
2023-03-22T08:26:29.781Z,12.80
2023-03-22T08:29:03.710Z,12.90
2023-03-22T08:31:35.331Z,13.00
2023-03-22T08:34:04.774Z,13.00
2023-03-22T08:36:33.218Z,13.10
2023-03-22T08:39:04.622Z,13.10
2023-03-22T08:41:58.083Z,13.10
2023-03-22T08:44:28.018Z,13.10
2023-03-22T08:46:56.637Z,13.20
2023-03-22T08:49:27.144Z,13.20
2023-03-22T08:52:01.600Z,13.30
2023-03-22T08:54:53.542Z,13.30
2023-03-22T08:57:40.285Z,13.30
2023-03-22T09:00:33.976Z,13.20
2023-03-22T09:03:27.441Z,13.20
2023-03-22T09:05:57.114Z,13.10
2023-03-22T09:08:26.078Z,13.10
2023-03-22T09:11:00.922Z,13.20
2023-03-22T09:13:31.726Z,13.30
2023-03-22T09:16:02.502Z,13.30
2023-03-22T09:18:33.826Z,13.20
2023-03-22T09:21:08.539Z,13.20
2023-03-22T09:23:47.610Z,13.30
2023-03-22T09:26:17.031Z,13.30
2023-03-22T09:28:48.418Z,13.30
2023-03-22T09:31:20.233Z,13.30
2023-03-22T09:33:50.491Z,13.50
2023-03-22T09:36:20.044Z,13.60
2023-03-22T09:38:49.968Z,13.60
2023-03-22T09:41:23.485Z,13.70
2023-03-22T09:43:55.513Z,13.70
2023-03-22T09:46:30.356Z,13.80
2023-03-22T09:48:59.559Z,13.70
2023-03-22T09:51:39.501Z,13.70
2023-03-22T09:54:14.655Z,13.80
2023-03-22T09:56:44.080Z,13.90
2023-03-22T09:59:17.610Z,13.80
2023-03-22T10:01:52.616Z,13.70
2023-03-22T10:04:40.299Z,13.80
2023-03-22T10:07:21.865Z,13.80
2023-03-22T10:09:58.946Z,13.80
2023-03-22T10:12:30.493Z,13.70
2023-03-22T10:15:06.149Z,13.60
2023-03-22T10:17:36.662Z,13.60
2023-03-22T10:20:09.842Z,13.60
2023-03-22T10:22:44.963Z,13.60
2023-03-22T10:25:18.779Z,13.60
2023-03-22T10:27:49.786Z,13.70
2023-03-22T10:30:22.379Z,13.70
2023-03-22T10:32:58.070Z,13.70
2023-03-22T10:35:26.893Z,13.80
2023-03-22T10:37:59.159Z,13.80
2023-03-22T10:40:30.445Z,13.80
2023-03-22T10:43:03.380Z,13.90
2023-03-22T10:45:36.027Z,14.10
2023-03-22T10:48:08.189Z,14.00
2023-03-22T10:50:39.189Z,13.90
2023-03-22T10:53:13.995Z,13.90
2023-03-22T10:55:43.383Z,13.90
2023-03-22T10:58:15.901Z,13.90
2023-03-22T11:00:49.157Z,14.00
2023-03-22T11:03:29.807Z,14.10
2023-03-22T11:06:03.409Z,14.10
2023-03-22T11:08:40.229Z,14.20
2023-03-22T11:11:09.062Z,14.30
2023-03-22T11:13:37.557Z,14.30
2023-03-22T11:16:06.050Z,14.30
2023-03-22T11:18:35.821Z,14.20
2023-03-22T11:21:08.829Z,14.20
2023-03-22T11:23:41.663Z,14.30
2023-03-22T11:26:12.518Z,14.30
2023-03-22T11:28:46.373Z,14.30
2023-03-22T11:31:16.304Z,14.30
2023-03-22T11:33:56.407Z,14.30
2023-03-22T11:36:25.391Z,14.30
2023-03-22T11:39:00.373Z,14.40
2023-03-22T11:41:30.856Z,14.40
2023-03-22T11:44:02.754Z,14.50
2023-03-22T11:46:31.906Z,14.40
2023-03-22T11:49:02.647Z,14.20
2023-03-22T11:51:35.025Z,14.10
2023-03-22T11:54:10.013Z,14.20
2023-03-22T11:56:42.642Z,14.30
2023-03-22T11:59:15.791Z,14.30
2023-03-22T12:01:48.290Z,14.30
2023-03-22T12:04:20.197Z,14.20
2023-03-22T12:06:48.692Z,14.10
2023-03-22T12:09:29.392Z,14.10
2023-03-22T12:12:01.428Z,14.20
2023-03-22T12:14:33.778Z,14.20
2023-03-22T12:17:07.111Z,14.30
2023-03-22T12:19:48.193Z,14.30
2023-03-22T12:22:31.642Z,14.20
2023-03-22T12:25:01.807Z,14.20
2023-03-22T12:27:34.250Z,14.40
2023-03-22T12:30:07.975Z,14.50
2023-03-22T12:32:41.883Z,14.50
2023-03-22T12:35:19.688Z,14.50
2023-03-22T12:37:52.212Z,14.50
2023-03-22T12:40:29.976Z,14.30
2023-03-22T12:43:05.560Z,14.30
2023-03-22T12:45:37.154Z,14.30
2023-03-22T12:48:11.165Z,14.30
2023-03-22T12:50:45.927Z,14.30
2023-03-22T12:53:17.395Z,14.30
2023-03-22T12:55:49.083Z,14.10
2023-03-22T12:58:21.400Z,14.20
2023-03-22T13:00:53.529Z,14.30
2023-03-22T13:03:26.863Z,14.30
2023-03-22T13:06:04.216Z,14.30
2023-03-22T13:09:13.007Z,14.30
2023-03-22T13:11:42.875Z,14.10
2023-03-22T13:14:15.115Z,14.10
2023-03-22T13:16:53.538Z,14.00
2023-03-22T13:19:33.084Z,13.90
2023-03-22T13:22:19.475Z,13.90
2023-03-22T13:25:17.000Z,13.80
2023-03-22T13:27:56.657Z,13.80
2023-03-22T13:30:27.555Z,13.80
2023-03-22T13:33:03.260Z,13.70
2023-03-22T13:35:42.097Z,13.70
2023-03-22T13:38:17.186Z,13.70
2023-03-22T13:40:51.093Z,13.70
2023-03-22T13:43:36.448Z,13.80
2023-03-22T13:46:27.477Z,13.80
2023-03-22T13:49:15.354Z,14.00
2023-03-22T13:51:44.897Z,14.00
2023-03-22T13:54:23.799Z,14.00
2023-03-22T13:56:56.862Z,14.00
2023-03-22T13:59:31.083Z,14.10
2023-03-22T14:02:04.746Z,14.20
2023-03-22T14:04:39.407Z,14.20
2023-03-22T14:07:19.478Z,14.10
2023-03-22T14:09:52.132Z,14.20
2023-03-22T14:12:23.827Z,14.20
2023-03-22T14:14:56.692Z,14.20
2023-03-22T14:17:34.351Z,14.30
2023-03-22T14:20:05.974Z,14.40
